Strona główna
METAR-TAF:

METAR-TAF

Lotnisko :

Doncaster Sheffield, Anglia

Port lotniczy Doncaster/Sheffield

Szerokość geograficzna: 53-29N, Długość geograficzna: 001-00W, wysokość: 17 m

Aktualna obserwacja pogody

Raport powstał 17 minut temu, godzina 09:50 UTC
Wiatr 4 kt od wschód
Temperatura 7°C
Wilgotność 76%
Ciśnienie 1028 hPa
Widzialność 10 km lub więcej
Brak chmur poniżej 1500 m i brak chmur cumulonimbus

METAR: EGCN 040950Z 09004KT CAVOK 07/03 Q1028

czas: 10:07 (10:07 UTC)

Prognoza

Raport powstał 5 godziny i 5 minut temu, godzina 05:02 UTC
Prognoza ważna od 04 godzina 06 UTC do 05 godzina 06 UTC
Wiatr 5 kt od wschód
Widzialność 10 km lub więcej
Rozproszone chmury na wysokości 3000 ft
Przejściowo
od 04 godzina 20 UTC do 05 godzina 06 UTC
Widzialność: 6000 m
Prawdopodobieństwo 30%
od 04 godzina 23 UTC do 05 godzina 06 UTC
Widzialność: 4000 m
zamglenie

TAF: EGCN 040502Z 0406/0506 09005KT 9999 SCT030 TEMPO 0420/0506 6000 PROB30 0423/0506 4000 BR

Obserwacja i prognoza pogody dla ponad 4000 lotnisk (raport METAR i TAF).

Dostępne stacje oznaczono żółtymi i czerwonymi punktami na mapie.

Najedź kursorem aby zobaczyć nazwę stacji.

Kliknij aby zobaczyć obserwacje i prognozy pogody.

Aby zmienić mapę: kliknij na zielony przycisk z czarnym krzyżykiem, aby powiększyć; na zielony przycisk z myślnikiem, aby pomniejszyć; na zielone strzałki, aby przejść do map sąsiednich.


METAR-TAF: